sensor_id;sensor_type;location;lat;lon;timestamp;temperature;humidity
4962;DHT22;2496;52.468;13.342;2023-04-21T00:01:59;12.10;99.90
4962;DHT22;2496;52.468;13.342;2023-04-21T00:04:26;12.10;99.90
4962;DHT22;2496;52.468;13.342;2023-04-21T00:06:54;12.10;99.90
4962;DHT22;2496;52.468;13.342;2023-04-21T00:09:22;12.10;99.90
4962;DHT22;2496;52.468;13.342;2023-04-21T00:11:49;12.00;99.90
4962;DHT22;2496;52.468;13.342;2023-04-21T00:14:16;12.00;99.90
4962;DHT22;2496;52.468;13.342;2023-04-21T00:16:43;12.00;99.90
4962;DHT22;2496;52.468;13.342;2023-04-21T00:19:10;12.00;99.90
4962;DHT22;2496;52.468;13.342;2023-04-21T00:21:39;12.00;99.90
4962;DHT22;2496;52.468;13.342;2023-04-21T00:24:07;12.00;99.90
4962;DHT22;2496;52.468;13.342;2023-04-21T00:26:36;12.00;99.90
4962;DHT22;2496;52.468;13.342;2023-04-21T00:29:03;12.00;99.90
4962;DHT22;2496;52.468;13.342;2023-04-21T00:31:31;11.90;99.90
4962;DHT22;2496;52.468;13.342;2023-04-21T00:33:58;11.90;99.90
4962;DHT22;2496;52.468;13.342;2023-04-21T00:36:25;11.90;99.90
4962;DHT22;2496;52.468;13.342;2023-04-21T00:38:53;11.90;99.90
4962;DHT22;2496;52.468;13.342;2023-04-21T00:41:20;11.80;99.90
4962;DHT22;2496;52.468;13.342;2023-04-21T00:44:02;11.70;99.90
4962;DHT22;2496;52.468;13.342;2023-04-21T00:46:30;11.70;99.90
4962;DHT22;2496;52.468;13.342;2023-04-21T00:48:58;11.70;99.90
4962;DHT22;2496;52.468;13.342;2023-04-21T00:51:26;11.70;99.90
4962;DHT22;2496;52.468;13.342;2023-04-21T00:53:54;11.60;99.90
4962;DHT22;2496;52.468;13.342;2023-04-21T00:56:22;11.60;99.90
4962;DHT22;2496;52.468;13.342;2023-04-21T00:58:50;11.60;99.90
4962;DHT22;2496;52.468;13.342;2023-04-21T01:01:19;11.60;99.90
4962;DHT22;2496;52.468;13.342;2023-04-21T01:03:46;11.50;99.90
4962;DHT22;2496;52.468;13.342;2023-04-21T01:06:15;11.50;99.90
4962;DHT22;2496;52.468;13.342;2023-04-21T01:08:42;11.40;99.90
4962;DHT22;2496;52.468;13.342;2023-04-21T01:11:12;11.40;99.90
4962;DHT22;2496;52.468;13.342;2023-04-21T01:13:39;11.30;99.90
4962;DHT22;2496;52.468;13.342;2023-04-21T01:16:07;11.30;99.90
4962;DHT22;2496;52.468;13.342;2023-04-21T01:18:35;11.30;99.90
4962;DHT22;2496;52.468;13.342;2023-04-21T01:21:04;11.20;99.90
4962;DHT22;2496;52.468;13.342;2023-04-21T01:23:33;11.20;99.90
4962;DHT22;2496;52.468;13.342;2023-04-21T01:26:00;11.20;99.90
4962;DHT22;2496;52.468;13.342;2023-04-21T01:28:27;11.10;99.90
4962;DHT22;2496;52.468;13.342;2023-04-21T01:30:55;11.10;99.90
4962;DHT22;2496;52.468;13.342;2023-04-21T01:33:22;11.00;99.90
4962;DHT22;2496;52.468;13.342;2023-04-21T01:35:50;11.00;99.90
4962;DHT22;2496;52.468;13.342;2023-04-21T01:38:17;10.90;99.90
4962;DHT22;2496;52.468;13.342;2023-04-21T01:40:47;10.90;99.90
4962;DHT22;2496;52.468;13.342;2023-04-21T01:43:16;10.90;99.90
4962;DHT22;2496;52.468;13.342;2023-04-21T01:45:43;10.90;99.90
4962;DHT22;2496;52.468;13.342;2023-04-21T01:48:11;10.90;99.90
4962;DHT22;2496;52.468;13.342;2023-04-21T01:50:39;10.80;99.90
4962;DHT22;2496;52.468;13.342;2023-04-21T01:53:06;10.80;99.90
4962;DHT22;2496;52.468;13.342;2023-04-21T01:55:33;10.70;99.90
4962;DHT22;2496;52.468;13.342;2023-04-21T01:58:01;10.70;99.90
4962;DHT22;2496;52.468;13.342;2023-04-21T02:00:29;10.70;99.90
4962;DHT22;2496;52.468;13.342;2023-04-21T02:02:56;10.60;99.90
4962;DHT22;2496;52.468;13.342;2023-04-21T02:05:24;10.60;99.90
4962;DHT22;2496;52.468;13.342;2023-04-21T02:07:51;10.60;99.90
4962;DHT22;2496;52.468;13.342;2023-04-21T02:10:18;10.50;99.90
4962;DHT22;2496;52.468;13.342;2023-04-21T02:12:46;10.50;99.90
4962;DHT22;2496;52.468;13.342;2023-04-21T02:15:14;10.50;99.90
4962;DHT22;2496;52.468;13.342;2023-04-21T02:17:41;10.50;99.90
4962;DHT22;2496;52.468;13.342;2023-04-21T02:20:10;10.50;99.90
4962;DHT22;2496;52.468;13.342;2023-04-21T02:22:38;10.50;99.90
4962;DHT22;2496;52.468;13.342;2023-04-21T02:25:06;10.50;99.90
4962;DHT22;2496;52.468;13.342;2023-04-21T02:27:34;10.40;99.90
4962;DHT22;2496;52.468;13.342;2023-04-21T02:30:01;10.40;99.90
4962;DHT22;2496;52.468;13.342;2023-04-21T02:32:30;10.50;99.90
4962;DHT22;2496;52.468;13.342;2023-04-21T02:34:57;10.40;99.90
4962;DHT22;2496;52.468;13.342;2023-04-21T02:37:24;10.40;99.90
4962;DHT22;2496;52.468;13.342;2023-04-21T02:39:52;10.40;99.90
4962;DHT22;2496;52.468;13.342;2023-04-21T02:42:19;10.40;99.90
4962;DHT22;2496;52.468;13.342;2023-04-21T02:44:46;10.40;99.90
4962;DHT22;2496;52.468;13.342;2023-04-21T02:47:14;10.40;99.90
4962;DHT22;2496;52.468;13.342;2023-04-21T02:49:43;10.40;99.90
4962;DHT22;2496;52.468;13.342;2023-04-21T02:52:10;10.40;99.90
4962;DHT22;2496;52.468;13.342;2023-04-21T02:54:38;10.40;99.90
4962;DHT22;2496;52.468;13.342;2023-04-21T02:57:05;10.30;99.90
4962;DHT22;2496;52.468;13.342;2023-04-21T02:59:32;10.30;99.90
4962;DHT22;2496;52.468;13.342;2023-04-21T03:02:00;10.30;99.90
4962;DHT22;2496;52.468;13.342;2023-04-21T03:04:27;10.30;99.90
4962;DHT22;2496;52.468;13.342;2023-04-21T03:06:56;10.20;99.90
4962;DHT22;2496;52.468;13.342;2023-04-21T03:09:23;10.20;99.90
4962;DHT22;2496;52.468;13.342;2023-04-21T03:11:50;10.20;99.90
4962;DHT22;2496;52.468;13.342;2023-04-21T03:14:18;10.10;99.90
4962;DHT22;2496;52.468;13.342;2023-04-21T03:16:45;10.20;99.90
4962;DHT22;2496;52.468;13.342;2023-04-21T03:19:14;10.20;99.90
4962;DHT22;2496;52.468;13.342;2023-04-21T03:21:42;10.20;99.90
4962;DHT22;2496;52.468;13.342;2023-04-21T03:24:10;10.10;99.90
4962;DHT22;2496;52.468;13.342;2023-04-21T03:26:38;10.10;99.90
4962;DHT22;2496;52.468;13.342;2023-04-21T03:29:06;10.10;99.90
4962;DHT22;2496;52.468;13.342;2023-04-21T03:31:33;10.10;99.90
4962;DHT22;2496;52.468;13.342;2023-04-21T03:34:00;10.10;99.90
4962;DHT22;2496;52.468;13.342;2023-04-21T03:36:26;10.10;99.90
4962;DHT22;2496;52.468;13.342;2023-04-21T03:38:52;10.10;99.90
4962;DHT22;2496;52.468;13.342;2023-04-21T03:41:21;10.00;99.90
4962;DHT22;2496;52.468;13.342;2023-04-21T03:43:49;10.00;99.90
4962;DHT22;2496;52.468;13.342;2023-04-21T03:46:17;10.00;99.90
4962;DHT22;2496;52.468;13.342;2023-04-21T03:48:45;10.00;99.90
4962;DHT22;2496;52.468;13.342;2023-04-21T03:51:13;10.00;99.90
4962;DHT22;2496;52.468;13.342;2023-04-21T03:53:40;10.00;99.90
4962;DHT22;2496;52.468;13.342;2023-04-21T03:56:08;9.90;99.90
4962;DHT22;2496;52.468;13.342;2023-04-21T03:58:37;9.90;99.90
4962;DHT22;2496;52.468;13.342;2023-04-21T04:01:04;9.90;99.90
4962;DHT22;2496;52.468;13.342;2023-04-21T04:03:32;9.90;99.90
4962;DHT22;2496;52.468;13.342;2023-04-21T04:05:59;9.80;99.90
4962;DHT22;2496;52.468;13.342;2023-04-21T04:08:28;9.90;99.90
4962;DHT22;2496;52.468;13.342;2023-04-21T04:10:55;9.80;99.90
4962;DHT22;2496;52.468;13.342;2023-04-21T04:13:22;9.80;99.90
4962;DHT22;2496;52.468;13.342;2023-04-21T04:15:52;9.80;99.90
4962;DHT22;2496;52.468;13.342;2023-04-21T04:18:20;9.80;99.90
4962;DHT22;2496;52.468;13.342;2023-04-21T04:20:47;9.80;99.90
4962;DHT22;2496;52.468;13.342;2023-04-21T04:23:14;9.80;99.90
4962;DHT22;2496;52.468;13.342;2023-04-21T04:25:42;9.80;99.90
4962;DHT22;2496;52.468;13.342;2023-04-21T04:28:09;9.70;99.90
4962;DHT22;2496;52.468;13.342;2023-04-21T04:30:37;9.80;99.90
4962;DHT22;2496;52.468;13.342;2023-04-21T04:33:05;9.70;99.90
4962;DHT22;2496;52.468;13.342;2023-04-21T04:35:34;9.70;99.90
4962;DHT22;2496;52.468;13.342;2023-04-21T04:38:02;9.70;99.90
4962;DHT22;2496;52.468;13.342;2023-04-21T04:40:29;9.70;99.90
4962;DHT22;2496;52.468;13.342;2023-04-21T04:42:58;9.80;99.90
4962;DHT22;2496;52.468;13.342;2023-04-21T04:45:26;9.80;99.90
4962;DHT22;2496;52.468;13.342;2023-04-21T04:47:56;9.80;99.90
4962;DHT22;2496;52.468;13.342;2023-04-21T04:50:25;9.80;99.90
4962;DHT22;2496;52.468;13.342;2023-04-21T04:52:52;9.80;99.90
4962;DHT22;2496;52.468;13.342;2023-04-21T04:55:20;9.80;99.90
4962;DHT22;2496;52.468;13.342;2023-04-21T04:57:48;9.90;99.90
4962;DHT22;2496;52.468;13.342;2023-04-21T05:00:15;9.90;99.90
4962;DHT22;2496;52.468;13.342;2023-04-21T05:02:43;9.90;99.90
4962;DHT22;2496;52.468;13.342;2023-04-21T05:05:10;9.90;99.90
4962;DHT22;2496;52.468;13.342;2023-04-21T05:07:39;9.90;99.90
4962;DHT22;2496;52.468;13.342;2023-04-21T05:10:07;9.90;99.90
4962;DHT22;2496;52.468;13.342;2023-04-21T05:12:34;9.90;99.90
4962;DHT22;2496;52.468;13.342;2023-04-21T05:15:01;9.90;99.90
4962;DHT22;2496;52.468;13.342;2023-04-21T05:17:29;10.00;99.90
4962;DHT22;2496;52.468;13.342;2023-04-21T05:19:57;10.00;99.90
4962;DHT22;2496;52.468;13.342;2023-04-21T05:22:24;10.00;99.90
4962;DHT22;2496;52.468;13.342;2023-04-21T05:24:53;10.10;99.90
4962;DHT22;2496;52.468;13.342;2023-04-21T05:27:20;10.10;99.90
4962;DHT22;2496;52.468;13.342;2023-04-21T05:29:48;10.20;99.90
4962;DHT22;2496;52.468;13.342;2023-04-21T05:32:15;10.30;99.90
4962;DHT22;2496;52.468;13.342;2023-04-21T05:34:42;10.40;99.90
4962;DHT22;2496;52.468;13.342;2023-04-21T05:37:10;10.40;99.90
4962;DHT22;2496;52.468;13.342;2023-04-21T05:39:38;10.40;99.90
4962;DHT22;2496;52.468;13.342;2023-04-21T05:42:09;10.50;99.90
4962;DHT22;2496;52.468;13.342;2023-04-21T05:44:36;10.50;99.90
4962;DHT22;2496;52.468;13.342;2023-04-21T05:47:03;10.60;99.90
4962;DHT22;2496;52.468;13.342;2023-04-21T05:49:30;10.60;99.90
4962;DHT22;2496;52.468;13.342;2023-04-21T05:51:57;10.70;99.90
4962;DHT22;2496;52.468;13.342;2023-04-21T05:54:24;10.70;99.90
4962;DHT22;2496;52.468;13.342;2023-04-21T05:56:51;10.70;99.90
4962;DHT22;2496;52.468;13.342;2023-04-21T05:59:20;10.80;99.90
4962;DHT22;2496;52.468;13.342;2023-04-21T06:01:47;10.90;99.90
4962;DHT22;2496;52.468;13.342;2023-04-21T06:04:13;11.00;99.90
4962;DHT22;2496;52.468;13.342;2023-04-21T06:06:40;11.20;99.90
4962;DHT22;2496;52.468;13.342;2023-04-21T06:09:09;11.60;99.90
4962;DHT22;2496;52.468;13.342;2023-04-21T06:11:36;12.00;99.90
4962;DHT22;2496;52.468;13.342;2023-04-21T06:14:02;12.40;99.90
4962;DHT22;2496;52.468;13.342;2023-04-21T06:16:31;12.70;99.90
4962;DHT22;2496;52.468;13.342;2023-04-21T06:18:58;12.70;99.90
4962;DHT22;2496;52.468;13.342;2023-04-21T06:21:28;13.00;99.90
4962;DHT22;2496;52.468;13.342;2023-04-21T06:23:55;12.90;99.90
4962;DHT22;2496;52.468;13.342;2023-04-21T06:26:22;13.00;99.90
4962;DHT22;2496;52.468;13.342;2023-04-21T06:28:49;12.90;99.90
4962;DHT22;2496;52.468;13.342;2023-04-21T06:31:16;12.80;99.90
4962;DHT22;2496;52.468;13.342;2023-04-21T06:33:45;12.70;99.90
4962;DHT22;2496;52.468;13.342;2023-04-21T06:36:12;12.80;99.90
4962;DHT22;2496;52.468;13.342;2023-04-21T06:38:39;12.90;99.90
4962;DHT22;2496;52.468;13.342;2023-04-21T06:41:07;12.80;99.90
4962;DHT22;2496;52.468;13.342;2023-04-21T06:43:34;12.90;99.90
4962;DHT22;2496;52.468;13.342;2023-04-21T06:46:02;12.90;99.90
4962;DHT22;2496;52.468;13.342;2023-04-21T06:48:29;12.80;99.90
4962;DHT22;2496;52.468;13.342;2023-04-21T06:50:57;12.90;99.90
4962;DHT22;2496;52.468;13.342;2023-04-21T06:53:25;13.00;99.90
4962;DHT22;2496;52.468;13.342;2023-04-21T06:55:52;13.20;99.90
4962;DHT22;2496;52.468;13.342;2023-04-21T06:58:19;13.20;99.90
4962;DHT22;2496;52.468;13.342;2023-04-21T07:00:46;13.40;99.90
4962;DHT22;2496;52.468;13.342;2023-04-21T07:03:13;13.50;99.90
4962;DHT22;2496;52.468;13.342;2023-04-21T07:05:40;13.60;99.90
4962;DHT22;2496;52.468;13.342;2023-04-21T07:08:08;13.60;99.90
4962;DHT22;2496;52.468;13.342;2023-04-21T07:10:35;13.70;99.90
4962;DHT22;2496;52.468;13.342;2023-04-21T07:13:02;13.80;99.90
4962;DHT22;2496;52.468;13.342;2023-04-21T07:15:29;13.90;99.90
4962;DHT22;2496;52.468;13.342;2023-04-21T07:17:56;14.10;99.90
4962;DHT22;2496;52.468;13.342;2023-04-21T07:20:24;14.20;99.90
4962;DHT22;2496;52.468;13.342;2023-04-21T07:22:51;14.10;99.90
4962;DHT22;2496;52.468;13.342;2023-04-21T07:25:19;14.10;99.90
4962;DHT22;2496;52.468;13.342;2023-04-21T07:27:46;14.20;99.90
4962;DHT22;2496;52.468;13.342;2023-04-21T07:30:14;14.30;99.90
4962;DHT22;2496;52.468;13.342;2023-04-21T07:32:41;14.40;99.90
4962;DHT22;2496;52.468;13.342;2023-04-21T07:35:08;14.50;99.90
4962;DHT22;2496;52.468;13.342;2023-04-21T07:37:35;14.70;99.90
4962;DHT22;2496;52.468;13.342;2023-04-21T07:40:02;14.80;99.90
4962;DHT22;2496;52.468;13.342;2023-04-21T07:42:31;15.00;99.90
4962;DHT22;2496;52.468;13.342;2023-04-21T07:44:58;15.20;99.90
4962;DHT22;2496;52.468;13.342;2023-04-21T07:47:27;15.40;99.90
4962;DHT22;2496;52.468;13.342;2023-04-21T07:49:54;15.50;99.90
4962;DHT22;2496;52.468;13.342;2023-04-21T07:52:21;15.80;99.90
4962;DHT22;2496;52.468;13.342;2023-04-21T07:54:48;16.00;99.90
4962;DHT22;2496;52.468;13.342;2023-04-21T07:57:15;16.20;99.80
4962;DHT22;2496;52.468;13.342;2023-04-21T07:59:43;16.30;99.80
4962;DHT22;2496;52.468;13.342;2023-04-21T08:02:10;16.40;99.60
4962;DHT22;2496;52.468;13.342;2023-04-21T08:04:37;16.60;99.40
4962;DHT22;2496;52.468;13.342;2023-04-21T08:07:04;16.90;98.90
4962;DHT22;2496;52.468;13.342;2023-04-21T08:09:31;17.10;98.90
4962;DHT22;2496;52.468;13.342;2023-04-21T08:11:58;17.40;98.40
4962;DHT22;2496;52.468;13.342;2023-04-21T08:14:26;17.60;97.90
4962;DHT22;2496;52.468;13.342;2023-04-21T08:16:55;17.70;97.70
4962;DHT22;2496;52.468;13.342;2023-04-21T08:19:22;17.80;97.40
4962;DHT22;2496;52.468;13.342;2023-04-21T08:21:49;18.00;97.10
4962;DHT22;2496;52.468;13.342;2023-04-21T08:24:16;18.00;96.50
4962;DHT22;2496;52.468;13.342;2023-04-21T08:26:43;18.00;96.20
4962;DHT22;2496;52.468;13.342;2023-04-21T08:29:10;18.00;96.50
4962;DHT22;2496;52.468;13.342;2023-04-21T08:31:38;18.10;96.10
4962;DHT22;2496;52.468;13.342;2023-04-21T08:34:07;18.30;96.40
4962;DHT22;2496;52.468;13.342;2023-04-21T08:36:34;18.50;95.50
4962;DHT22;2496;52.468;13.342;2023-04-21T08:39:01;18.70;95.20
4962;DHT22;2496;52.468;13.342;2023-04-21T08:41:28;18.80;94.70
4962;DHT22;2496;52.468;13.342;2023-04-21T08:43:55;19.00;94.60
4962;DHT22;2496;52.468;13.342;2023-04-21T08:46:26;19.10;94.10
4962;DHT22;2496;52.468;13.342;2023-04-21T08:48:53;19.00;94.40
4962;DHT22;2496;52.468;13.342;2023-04-21T08:51:23;19.10;94.40
4962;DHT22;2496;52.468;13.342;2023-04-21T08:53:53;19.30;93.90
4962;DHT22;2496;52.468;13.342;2023-04-21T08:56:20;19.30;93.50
4962;DHT22;2496;52.468;13.342;2023-04-21T08:58:47;19.30;93.50
4962;DHT22;2496;52.468;13.342;2023-04-21T09:01:14;19.40;93.00
4962;DHT22;2496;52.468;13.342;2023-04-21T09:03:41;19.40;92.90
4962;DHT22;2496;52.468;13.342;2023-04-21T09:06:09;19.50;92.90
4962;DHT22;2496;52.468;13.342;2023-04-21T09:08:41;19.30;92.30
4962;DHT22;2496;52.468;13.342;2023-04-21T09:11:13;19.30;92.80
4962;DHT22;2496;52.468;13.342;2023-04-21T09:13:42;19.20;92.90
4962;DHT22;2496;52.468;13.342;2023-04-21T09:16:18;19.20;92.40
4962;DHT22;2496;52.468;13.342;2023-04-21T09:18:46;19.40;92.40
4962;DHT22;2496;52.468;13.342;2023-04-21T09:21:14;19.60;92.00
4962;DHT22;2496;52.468;13.342;2023-04-21T09:23:44;19.60;91.70
4962;DHT22;2496;52.468;13.342;2023-04-21T09:26:12;19.50;91.60
4962;DHT22;2496;52.468;13.342;2023-04-21T09:28:41;19.40;91.90
4962;DHT22;2496;52.468;13.342;2023-04-21T09:31:15;19.40;91.60
4962;DHT22;2496;52.468;13.342;2023-04-21T09:33:45;19.40;91.70
4962;DHT22;2496;52.468;13.342;2023-04-21T09:36:17;19.40;91.90
4962;DHT22;2496;52.468;13.342;2023-04-21T09:38:54;19.40;91.90
4962;DHT22;2496;52.468;13.342;2023-04-21T09:41:22;19.30;91.60
4962;DHT22;2496;52.468;13.342;2023-04-21T09:43:49;19.20;91.60
4962;DHT22;2496;52.468;13.342;2023-04-21T09:46:17;18.80;91.70
4962;DHT22;2496;52.468;13.342;2023-04-21T09:48:45;18.80;92.10
4962;DHT22;2496;52.468;13.342;2023-04-21T09:51:14;18.80;92.30
4962;DHT22;2496;52.468;13.342;2023-04-21T09:53:44;18.80;92.00
4962;DHT22;2496;52.468;13.342;2023-04-21T09:56:14;18.70;91.80
4962;DHT22;2496;52.468;13.342;2023-04-21T09:58:45;18.70;91.70
4962;DHT22;2496;52.468;13.342;2023-04-21T10:01:14;18.60;91.80
4962;DHT22;2496;52.468;13.342;2023-04-21T10:03:43;18.40;92.00
4962;DHT22;2496;52.468;13.342;2023-04-21T10:06:11;18.40;92.50
4962;DHT22;2496;52.468;13.342;2023-04-21T10:08:39;18.30;92.50
4962;DHT22;2496;52.468;13.342;2023-04-21T10:11:06;18.20;92.20
4962;DHT22;2496;52.468;13.342;2023-04-21T10:13:36;18.20;92.10
4962;DHT22;2496;52.468;13.342;2023-04-21T10:16:05;18.30;92.00
4962;DHT22;2496;52.468;13.342;2023-04-21T10:18:35;18.20;92.40
4962;DHT22;2496;52.468;13.342;2023-04-21T10:21:06;18.30;92.60
4962;DHT22;2496;52.468;13.342;2023-04-21T10:23:37;18.30;92.10
4962;DHT22;2496;52.468;13.342;2023-04-21T10:26:08;18.30;92.20
4962;DHT22;2496;52.468;13.342;2023-04-21T10:28:44;18.30;92.40
4962;DHT22;2496;52.468;13.342;2023-04-21T10:31:19;18.30;91.70
4962;DHT22;2496;52.468;13.342;2023-04-21T10:34:18;18.40;91.10
4962;DHT22;2496;52.468;13.342;2023-04-21T10:39:38;18.40;90.90
4962;DHT22;2496;52.468;13.342;2023-04-21T10:42:28;18.40;90.60
4962;DHT22;2496;52.468;13.342;2023-04-21T10:45:07;18.30;91.10
4962;DHT22;2496;52.468;13.342;2023-04-21T10:47:40;18.30;90.50
4962;DHT22;2496;52.468;13.342;2023-04-21T10:50:18;18.40;89.20
4962;DHT22;2496;52.468;13.342;2023-04-21T10:52:51;18.40;90.10
4962;DHT22;2496;52.468;13.342;2023-04-21T10:55:18;18.30;90.50
4962;DHT22;2496;52.468;13.342;2023-04-21T10:57:46;18.40;91.10
4962;DHT22;2496;52.468;13.342;2023-04-21T11:00:17;18.40;91.00
4962;DHT22;2496;52.468;13.342;2023-04-21T11:02:52;18.60;91.10
4962;DHT22;2496;52.468;13.342;2023-04-21T11:05:25;18.60;90.40
4962;DHT22;2496;52.468;13.342;2023-04-21T11:08:04;18.60;90.00
4962;DHT22;2496;52.468;13.342;2023-04-21T11:10:41;18.70;90.00
4962;DHT22;2496;52.468;13.342;2023-04-21T11:13:08;18.70;90.10
4962;DHT22;2496;52.468;13.342;2023-04-21T11:15:37;18.70;90.50
4962;DHT22;2496;52.468;13.342;2023-04-21T11:18:05;18.70;90.40
4962;DHT22;2496;52.468;13.342;2023-04-21T11:20:33;18.80;90.40
4962;DHT22;2496;52.468;13.342;2023-04-21T11:23:00;18.70;90.60
4962;DHT22;2496;52.468;13.342;2023-04-21T11:25:29;18.70;90.00
4962;DHT22;2496;52.468;13.342;2023-04-21T11:27:56;18.80;88.40
4962;DHT22;2496;52.468;13.342;2023-04-21T11:30:30;18.70;88.20
4962;DHT22;2496;52.468;13.342;2023-04-21T11:33:00;18.80;85.30
4962;DHT22;2496;52.468;13.342;2023-04-21T11:35:27;18.80;85.80
4962;DHT22;2496;52.468;13.342;2023-04-21T11:37:54;18.70;88.90
4962;DHT22;2496;52.468;13.342;2023-04-21T11:40:21;18.80;87.60
4962;DHT22;2496;52.468;13.342;2023-04-21T11:42:49;18.80;86.70
4962;DHT22;2496;52.468;13.342;2023-04-21T11:45:17;18.80;87.60
4962;DHT22;2496;52.468;13.342;2023-04-21T11:47:44;18.90;85.90
4962;DHT22;2496;52.468;13.342;2023-04-21T11:50:29;18.80;83.60
4962;DHT22;2496;52.468;13.342;2023-04-21T11:52:56;18.90;82.10
4962;DHT22;2496;52.468;13.342;2023-04-21T11:55:24;19.00;82.60
4962;DHT22;2496;52.468;13.342;2023-04-21T11:57:51;19.00;82.70
4962;DHT22;2496;52.468;13.342;2023-04-21T12:00:18;19.10;84.90
4962;DHT22;2496;52.468;13.342;2023-04-21T12:02:54;19.10;87.10
4962;DHT22;2496;52.468;13.342;2023-04-21T12:05:22;19.10;85.40
4962;DHT22;2496;52.468;13.342;2023-04-21T12:07:49;19.20;86.40
4962;DHT22;2496;52.468;13.342;2023-04-21T12:10:18;19.20;86.50
4962;DHT22;2496;52.468;13.342;2023-04-21T12:12:46;19.20;84.10
4962;DHT22;2496;52.468;13.342;2023-04-21T12:15:17;19.10;84.60
4962;DHT22;2496;52.468;13.342;2023-04-21T12:17:45;19.10;85.90
4962;DHT22;2496;52.468;13.342;2023-04-21T12:20:15;19.10;85.80
4962;DHT22;2496;52.468;13.342;2023-04-21T12:22:43;19.10;86.50
4962;DHT22;2496;52.468;13.342;2023-04-21T12:25:11;19.20;84.90
4962;DHT22;2496;52.468;13.342;2023-04-21T12:27:47;19.30;84.80
4962;DHT22;2496;52.468;13.342;2023-04-21T12:30:14;19.30;85.30
4962;DHT22;2496;52.468;13.342;2023-04-21T12:32:41;19.40;85.70
4962;DHT22;2496;52.468;13.342;2023-04-21T12:35:09;19.40;83.80
4962;DHT22;2496;52.468;13.342;2023-04-21T12:37:36;19.40;84.00
4962;DHT22;2496;52.468;13.342;2023-04-21T12:40:05;19.50;85.00
4962;DHT22;2496;52.468;13.342;2023-04-21T12:42:33;19.50;85.40
4962;DHT22;2496;52.468;13.342;2023-04-21T12:45:00;19.50;84.70
4962;DHT22;2496;52.468;13.342;2023-04-21T12:47:27;19.50;84.30
4962;DHT22;2496;52.468;13.342;2023-04-21T12:49:54;19.40;84.00
4962;DHT22;2496;52.468;13.342;2023-04-21T12:52:22;19.40;84.00
4962;DHT22;2496;52.468;13.342;2023-04-21T12:54:49;19.50;84.50
4962;DHT22;2496;52.468;13.342;2023-04-21T12:57:17;19.50;83.60
4962;DHT22;2496;52.468;13.342;2023-04-21T12:59:44;19.40;83.90
4962;DHT22;2496;52.468;13.342;2023-04-21T13:02:11;19.30;83.20
4962;DHT22;2496;52.468;13.342;2023-04-21T13:04:38;19.30;83.90
4962;DHT22;2496;52.468;13.342;2023-04-21T13:07:06;19.20;83.40
4962;DHT22;2496;52.468;13.342;2023-04-21T13:09:33;19.20;83.50
4962;DHT22;2496;52.468;13.342;2023-04-21T13:12:00;19.30;83.90
4962;DHT22;2496;52.468;13.342;2023-04-21T13:14:29;19.30;83.80
4962;DHT22;2496;52.468;13.342;2023-04-21T13:16:56;19.50;83.10
4962;DHT22;2496;52.468;13.342;2023-04-21T13:19:23;19.50;82.70
4962;DHT22;2496;52.468;13.342;2023-04-21T13:21:50;19.50;82.40
4962;DHT22;2496;52.468;13.342;2023-04-21T13:24:17;19.50;81.40
4962;DHT22;2496;52.468;13.342;2023-04-21T13:26:44;19.60;81.50
4962;DHT22;2496;52.468;13.342;2023-04-21T13:29:11;19.70;82.40
4962;DHT22;2496;52.468;13.342;2023-04-21T13:31:39;19.70;81.60
4962;DHT22;2496;52.468;13.342;2023-04-21T13:34:06;19.70;81.90
4962;DHT22;2496;52.468;13.342;2023-04-21T13:36:33;19.70;81.30
4962;DHT22;2496;52.468;13.342;2023-04-21T13:39:00;19.70;81.30
4962;DHT22;2496;52.468;13.342;2023-04-21T13:41:29;19.60;80.70
4962;DHT22;2496;52.468;13.342;2023-04-21T13:43:56;19.60;81.30
4962;DHT22;2496;52.468;13.342;2023-04-21T13:46:23;19.70;81.80
4962;DHT22;2496;52.468;13.342;2023-04-21T13:48:51;19.70;79.20
4962;DHT22;2496;52.468;13.342;2023-04-21T13:51:19;19.70;79.50
4962;DHT22;2496;52.468;13.342;2023-04-21T13:53:46;19.50;80.40
4962;DHT22;2496;52.468;13.342;2023-04-21T13:56:13;19.50;81.20
4962;DHT22;2496;52.468;13.342;2023-04-21T13:58:40;19.60;81.00
4962;DHT22;2496;52.468;13.342;2023-04-21T14:01:07;19.70;80.50
4962;DHT22;2496;52.468;13.342;2023-04-21T14:03:35;19.70;80.70
4962;DHT22;2496;52.468;13.342;2023-04-21T14:06:04;19.70;80.40
4962;DHT22;2496;52.468;13.342;2023-04-21T14:08:31;19.70;80.30
4962;DHT22;2496;52.468;13.342;2023-04-21T14:10:58;19.60;80.70
4962;DHT22;2496;52.468;13.342;2023-04-21T14:13:25;19.70;80.80
4962;DHT22;2496;52.468;13.342;2023-04-21T14:15:53;19.80;80.50
4962;DHT22;2496;52.468;13.342;2023-04-21T14:18:20;19.70;81.10
4962;DHT22;2496;52.468;13.342;2023-04-21T14:20:48;19.70;80.40
4962;DHT22;2496;52.468;13.342;2023-04-21T14:23:16;19.70;80.00
4962;DHT22;2496;52.468;13.342;2023-04-21T14:25:43;19.70;80.00
4962;DHT22;2496;52.468;13.342;2023-04-21T14:28:10;19.70;79.70
4962;DHT22;2496;52.468;13.342;2023-04-21T14:30:37;19.70;80.20
4962;DHT22;2496;52.468;13.342;2023-04-21T14:33:04;19.80;80.60
4962;DHT22;2496;52.468;13.342;2023-04-21T14:35:31;19.90;79.50
4962;DHT22;2496;52.468;13.342;2023-04-21T14:37:58;19.80;79.00
4962;DHT22;2496;52.468;13.342;2023-04-21T14:40:27;19.80;78.80
4962;DHT22;2496;52.468;13.342;2023-04-21T14:42:53;19.70;78.80
4962;DHT22;2496;52.468;13.342;2023-04-21T14:45:20;19.60;79.00
4962;DHT22;2496;52.468;13.342;2023-04-21T14:47:47;19.60;79.00
4962;DHT22;2496;52.468;13.342;2023-04-21T14:50:14;19.50;79.20
4962;DHT22;2496;52.468;13.342;2023-04-21T14:52:41;19.50;78.90
4962;DHT22;2496;52.468;13.342;2023-04-21T14:55:09;19.50;78.70
4962;DHT22;2496;52.468;13.342;2023-04-21T14:57:38;19.50;79.10
4962;DHT22;2496;52.468;13.342;2023-04-21T15:00:06;19.50;78.70
4962;DHT22;2496;52.468;13.342;2023-04-21T15:02:34;19.50;79.20
4962;DHT22;2496;52.468;13.342;2023-04-21T15:05:01;19.60;79.10
4962;DHT22;2496;52.468;13.342;2023-04-21T15:07:29;19.50;78.60
4962;DHT22;2496;52.468;13.342;2023-04-21T15:09:56;19.50;78.50
4962;DHT22;2496;52.468;13.342;2023-04-21T15:12:23;19.50;77.90
4962;DHT22;2496;52.468;13.342;2023-04-21T15:14:51;19.50;77.20
4962;DHT22;2496;52.468;13.342;2023-04-21T15:17:18;19.50;77.90
4962;DHT22;2496;52.468;13.342;2023-04-21T15:19:45;19.50;78.30
4962;DHT22;2496;52.468;13.342;2023-04-21T15:22:12;19.50;78.40
4962;DHT22;2496;52.468;13.342;2023-04-21T15:24:39;19.40;78.00
4962;DHT22;2496;52.468;13.342;2023-04-21T15:27:06;19.40;78.40
4962;DHT22;2496;52.468;13.342;2023-04-21T15:29:33;19.40;78.00
4962;DHT22;2496;52.468;13.342;2023-04-21T15:32:02;19.40;77.80
4962;DHT22;2496;52.468;13.342;2023-04-21T15:34:29;19.40;77.60
4962;DHT22;2496;52.468;13.342;2023-04-21T15:36:56;19.40;77.10
4962;DHT22;2496;52.468;13.342;2023-04-21T15:39:23;19.40;77.30
4962;DHT22;2496;52.468;13.342;2023-04-21T15:41:50;19.30;77.40
4962;DHT22;2496;52.468;13.342;2023-04-21T15:44:17;19.30;77.60
4962;DHT22;2496;52.468;13.342;2023-04-21T15:46:44;19.30;77.50
4962;DHT22;2496;52.468;13.342;2023-04-21T15:49:13;19.30;77.90
4962;DHT22;2496;52.468;13.342;2023-04-21T15:51:40;19.30;77.70
4962;DHT22;2496;52.468;13.342;2023-04-21T15:54:08;19.20;77.80
4962;DHT22;2496;52.468;13.342;2023-04-21T15:56:35;19.20;77.70